createdAt,value
2022-08-07T00:00:59.464Z,72.52
2022-08-07T00:03:51.005Z,73.97
2022-08-07T00:07:01.455Z,74.32
2022-08-07T00:09:37.259Z,75.83
2022-08-07T00:15:17.056Z,74.74
2022-08-07T00:17:49.869Z,75.83
2022-08-07T00:20:40.434Z,77.53
2022-08-07T00:26:49.127Z,79.53
2022-08-07T00:29:14.139Z,80.94
2022-08-07T00:44:01.374Z,89.48
2022-08-07T00:56:03.351Z,94.63
2022-08-07T01:06:02.634Z,96.13
2022-08-07T01:12:36.630Z,99.62
2022-08-07T01:16:05.242Z,99.74
2022-08-07T01:18:59.804Z,99.32
2022-08-07T01:21:55.190Z,100.00
2022-08-07T01:24:35.631Z,100.00
2022-08-07T01:36:17.401Z,100.00
2022-08-07T01:39:39.648Z,100.00
2022-08-07T01:45:22.970Z,100.00
2022-08-07T01:48:46.721Z,100.00
2022-08-07T01:52:04.847Z,100.00
2022-08-07T01:54:58.891Z,100.00
2022-08-07T01:58:05.970Z,100.00
2022-08-07T02:01:59.425Z,100.00
2022-08-07T02:04:37.092Z,100.00
2022-08-07T02:07:13.177Z,100.00
2022-08-07T02:10:22.183Z,100.00
2022-08-07T02:16:11.933Z,100.00
2022-08-07T02:20:04.374Z,100.00
2022-08-07T02:22:54.846Z,100.00
2022-08-07T02:26:31.624Z,100.00
2022-08-07T02:29:13.685Z,100.00
2022-08-07T02:40:02.193Z,100.00
2022-08-07T02:43:12.649Z,100.00
2022-08-07T02:46:05.976Z,100.00
2022-08-07T02:49:28.683Z,100.00
2022-08-07T02:52:11.013Z,100.00
2022-08-07T02:56:02.577Z,100.00
2022-08-07T02:58:54.190Z,100.00
2022-08-07T03:01:35.427Z,100.00
2022-08-07T03:04:28.189Z,100.00
2022-08-07T03:08:07.563Z,100.00
2022-08-07T03:10:48.517Z,100.00
2022-08-07T03:13:49.921Z,100.00
2022-08-07T03:16:42.604Z,100.00
2022-08-07T03:22:43.169Z,100.00
2022-08-07T03:26:35.414Z,100.00
2022-08-07T03:29:56.608Z,100.00
2022-08-07T03:33:08.713Z,100.00
2022-08-07T03:39:45.858Z,100.00
2022-08-07T03:49:03.103Z,100.00
2022-08-07T03:52:33.867Z,100.00
2022-08-07T03:56:04.292Z,100.00
2022-08-07T03:59:14.390Z,100.00
2022-08-07T04:02:23.578Z,100.00
2022-08-07T04:05:15.199Z,100.00
2022-08-07T04:12:20.750Z,100.00
2022-08-07T04:14:38.599Z,100.00
2022-08-07T04:18:30.865Z,100.00
2022-08-07T04:24:30.582Z,100.00
2022-08-07T04:27:26.583Z,100.00
2022-08-07T04:30:35.802Z,100.00
2022-08-07T04:33:37.610Z,100.00
2022-08-07T04:36:28.525Z,100.00
2022-08-07T04:39:03.439Z,100.00
2022-08-07T04:42:31.067Z,100.00
2022-08-07T04:46:00.422Z,100.00
2022-08-07T04:58:15.000Z,100.00
2022-08-07T05:01:41.806Z,100.00
2022-08-07T05:04:47.344Z,100.00
2022-08-07T05:07:58.961Z,100.00
2022-08-07T05:14:52.969Z,100.00
2022-08-07T05:31:37.953Z,100.00
2022-08-07T05:34:29.826Z,100.00
2022-08-07T05:40:52.571Z,100.00
2022-08-07T05:44:01.108Z,100.00
2022-08-07T05:46:39.736Z,100.00
2022-08-07T05:49:40.766Z,100.00
2022-08-07T05:52:14.239Z,96.58
2022-08-07T05:55:10.942Z,94.74
2022-08-07T05:58:39.345Z,94.16
2022-08-07T06:01:49.538Z,90.38
2022-08-07T06:08:29.320Z,81.57
2022-08-07T06:11:21.616Z,78.25
2022-08-07T06:14:20.964Z,76.16
2022-08-07T06:20:32.088Z,72.93
2022-08-07T06:24:45.919Z,72.42
2022-08-07T06:31:24.242Z,69.28
2022-08-07T06:40:55.497Z,63.41
2022-08-07T06:44:10.823Z,60.24
2022-08-07T06:47:48.171Z,60.13
2022-08-07T06:57:43.460Z,55.15
2022-08-07T07:03:58.137Z,50.93
2022-08-07T07:07:59.902Z,49.37
2022-08-07T07:10:56.822Z,47.02
2022-08-07T07:13:57.833Z,47.11
2022-08-07T07:17:16.000Z,46.73
2022-08-07T07:24:09.488Z,45.65
2022-08-07T07:34:32.031Z,43.75
2022-08-07T07:41:05.501Z,43.50
2022-08-07T07:44:14.203Z,43.85
2022-08-07T07:47:23.092Z,43.76
2022-08-07T07:50:40.031Z,44.41
2022-08-07T07:56:41.092Z,44.64
2022-08-07T07:59:52.012Z,43.42
2022-08-07T08:04:06.071Z,43.82
2022-08-07T08:06:13.942Z,43.05
2022-08-07T08:12:05.195Z,43.86
2022-08-07T08:14:55.798Z,42.57
2022-08-07T08:17:58.243Z,40.99
2022-08-07T08:21:56.014Z,41.34
2022-08-07T08:32:18.947Z,39.84
2022-08-07T08:38:38.123Z,40.34
2022-08-07T08:44:55.151Z,38.59
2022-08-07T08:54:24.759Z,37.98
2022-08-07T08:56:59.520Z,38.81
2022-08-07T09:00:06.897Z,39.49
2022-08-07T09:03:23.295Z,40.03
2022-08-07T09:06:40.268Z,40.02
2022-08-07T09:09:56.774Z,39.84
2022-08-07T09:12:55.830Z,39.51
2022-08-07T09:16:25.929Z,39.15
2022-08-07T09:19:55.356Z,39.33
2022-08-07T09:24:31.218Z,39.68
2022-08-07T09:26:23.885Z,37.93
2022-08-07T09:30:06.306Z,37.78
2022-08-07T09:33:05.232Z,38.42
2022-08-07T09:36:07.622Z,38.17
2022-08-07T09:39:17.957Z,37.98
2022-08-07T09:47:25.462Z,36.67
2022-08-07T09:50:01.670Z,36.75
2022-08-07T09:52:33.547Z,36.59
2022-08-07T09:56:03.135Z,36.57
2022-08-07T09:59:07.767Z,36.77
2022-08-07T10:02:24.150Z,35.94
2022-08-07T10:05:58.986Z,33.59
2022-08-07T10:09:06.636Z,33.83
2022-08-07T10:16:01.890Z,32.02
2022-08-07T10:19:38.407Z,32.40
2022-08-07T10:22:36.805Z,31.95
2022-08-07T10:25:52.926Z,30.93
2022-08-07T10:28:52.741Z,31.25
2022-08-07T10:32:36.497Z,31.53
2022-08-07T10:36:05.497Z,31.56
2022-08-07T10:42:20.832Z,31.14
2022-08-07T10:45:45.219Z,31.24
2022-08-07T10:48:59.604Z,31.18
2022-08-07T10:55:46.719Z,29.76
2022-08-07T10:59:13.612Z,29.57
2022-08-07T11:02:05.142Z,28.85
2022-08-07T11:05:10.728Z,28.34
2022-08-07T11:08:00.425Z,28.59
2022-08-07T11:14:45.196Z,28.82
2022-08-07T11:17:23.232Z,29.02
2022-08-07T11:27:20.673Z,29.05
2022-08-07T11:30:55.749Z,28.30
2022-08-07T11:34:06.498Z,27.32
2022-08-07T11:41:00.518Z,27.59
2022-08-07T11:44:12.604Z,27.17
2022-08-07T11:47:39.016Z,27.25
2022-08-07T11:54:16.497Z,28.34
2022-08-07T12:01:02.648Z,28.77
2022-08-07T12:04:11.777Z,29.20
2022-08-07T12:10:17.491Z,29.90
2022-08-07T12:20:49.317Z,31.35
2022-08-07T12:24:05.455Z,31.48
2022-08-07T12:26:46.977Z,31.67
2022-08-07T12:29:48.046Z,33.21
2022-08-07T12:36:11.488Z,36.55
2022-08-07T12:42:13.103Z,38.49
2022-08-07T12:52:12.135Z,39.85
2022-08-07T12:55:03.690Z,40.26
2022-08-07T12:58:00.461Z,40.92
2022-08-07T13:01:12.547Z,41.08
2022-08-07T13:04:34.242Z,41.38
2022-08-07T13:08:13.560Z,41.41
2022-08-07T13:11:31.117Z,42.22
2022-08-07T13:14:46.853Z,42.38
2022-08-07T13:30:53.151Z,44.23
2022-08-07T13:34:32.622Z,44.32
2022-08-07T13:37:30.219Z,44.68
2022-08-07T13:40:34.975Z,45.25
2022-08-07T13:44:10.537Z,45.45
2022-08-07T13:51:00.279Z,45.44
2022-08-07T13:53:59.542Z,45.71
2022-08-07T13:56:51.599Z,45.83
2022-08-07T14:00:02.349Z,46.13
2022-08-07T14:06:41.487Z,46.40
2022-08-07T14:10:17.844Z,46.32
2022-08-07T14:13:22.060Z,45.55
2022-08-07T14:23:59.324Z,46.07
2022-08-07T14:30:08.091Z,45.93
2022-08-07T14:33:00.239Z,45.98
2022-08-07T14:39:04.624Z,45.49
2022-08-07T14:44:59.532Z,45.83
2022-08-07T14:57:58.053Z,46.95
2022-08-07T15:01:21.404Z,47.13
2022-08-07T15:04:30.635Z,46.68
2022-08-07T15:10:26.706Z,46.24
2022-08-07T15:16:54.953Z,46.02
2022-08-07T15:20:32.430Z,46.01
2022-08-07T15:26:56.733Z,45.92
2022-08-07T15:30:09.681Z,45.90
2022-08-07T15:33:03.722Z,45.89
2022-08-07T15:49:14.305Z,46.26
2022-08-07T15:56:02.959Z,46.16
2022-08-07T16:02:31.357Z,45.77
2022-08-07T16:05:36.055Z,45.46
2022-08-07T16:12:28.748Z,46.04
2022-08-07T16:15:55.146Z,46.40
2022-08-07T16:19:43.204Z,46.06
2022-08-07T16:23:09.952Z,46.27
2022-08-07T16:26:37.677Z,46.11
2022-08-07T16:30:11.909Z,46.36
2022-08-07T16:33:00.064Z,47.10
2022-08-07T16:39:49.124Z,47.42
2022-08-07T16:43:08.711Z,47.49
2022-08-07T16:47:03.021Z,47.80
2022-08-07T16:58:00.926Z,48.21
2022-08-07T17:00:51.715Z,48.74
2022-08-07T17:10:32.610Z,48.36
2022-08-07T17:14:19.255Z,48.29
2022-08-07T17:16:58.006Z,48.61
2022-08-07T17:23:16.884Z,48.33
2022-08-07T17:30:14.141Z,48.58
2022-08-07T17:34:18.158Z,48.96
2022-08-07T17:37:09.724Z,49.51
2022-08-07T17:40:42.676Z,49.67
2022-08-07T17:44:02.262Z,50.09
2022-08-07T17:46:59.918Z,50.25
2022-08-07T17:49:44.463Z,50.92
2022-08-07T17:52:36.323Z,51.16
2022-08-07T17:58:51.757Z,53.15
2022-08-07T18:02:05.111Z,53.88
2022-08-07T18:07:46.910Z,54.97
2022-08-07T18:12:06.775Z,55.97
2022-08-07T18:16:58.055Z,57.30
2022-08-07T18:21:06.592Z,57.93
2022-08-07T18:22:43.756Z,58.59
2022-08-07T18:25:40.582Z,59.62
2022-08-07T18:28:35.681Z,60.44
2022-08-07T18:32:18.353Z,60.99
2022-08-07T18:35:28.149Z,61.66
2022-08-07T18:38:57.675Z,62.47
2022-08-07T18:42:20.923Z,63.12
2022-08-07T18:50:31.321Z,59.19
2022-08-07T18:55:57.449Z,59.27
2022-08-07T19:02:36.123Z,61.12
2022-08-07T19:06:03.407Z,62.29
2022-08-07T19:08:46.605Z,62.30
2022-08-07T19:14:51.943Z,62.05
2022-08-07T19:22:04.363Z,60.38
2022-08-07T19:25:12.348Z,60.90
2022-08-07T19:31:05.545Z,62.14
2022-08-07T19:32:10.569Z,62.64
2022-08-07T19:35:08.623Z,62.08
2022-08-07T19:38:02.611Z,62.16
2022-08-07T19:41:15.152Z,62.09
2022-08-07T19:44:19.061Z,62.64
2022-08-07T19:47:36.441Z,64.59
2022-08-07T19:50:44.223Z,64.57
2022-08-07T19:54:34.958Z,64.73
2022-08-07T19:57:51.951Z,64.58
2022-08-07T20:06:02.233Z,65.55
2022-08-07T20:10:36.577Z,65.77
2022-08-07T20:12:31.293Z,67.13
2022-08-07T20:18:34.467Z,67.69
2022-08-07T20:21:47.171Z,69.18
2022-08-07T20:24:42.016Z,69.06
2022-08-07T20:31:01.854Z,69.76
2022-08-07T20:34:09.842Z,70.44
2022-08-07T20:40:32.250Z,70.79
2022-08-07T20:43:14.824Z,71.28
2022-08-07T20:46:33.410Z,73.21
2022-08-07T20:55:56.629Z,82.65
2022-08-07T20:58:35.587Z,85.19
2022-08-07T21:01:58.164Z,86.04
2022-08-07T21:04:34.460Z,87.54
2022-08-07T21:08:16.987Z,89.84
2022-08-07T21:14:33.460Z,91.52
2022-08-07T21:18:09.079Z,92.75
2022-08-07T21:21:56.598Z,94.05
2022-08-07T21:28:50.048Z,99.75
2022-08-07T21:32:47.308Z,100.00
2022-08-07T21:35:34.535Z,100.00
2022-08-07T21:38:39.125Z,100.00
2022-08-07T21:42:02.785Z,100.00
2022-08-07T21:45:42.092Z,100.00
2022-08-07T21:48:43.776Z,100.00
2022-08-07T21:52:09.073Z,100.00
2022-08-07T21:55:41.162Z,100.00
2022-08-07T21:58:33.354Z,100.00
2022-08-07T22:01:14.494Z,100.00
2022-08-07T22:04:11.460Z,100.00
2022-08-07T22:06:50.963Z,100.00
2022-08-07T22:09:31.446Z,100.00
2022-08-07T22:16:38.901Z,100.00
2022-08-07T22:19:37.117Z,100.00
2022-08-07T22:22:40.000Z,100.00
2022-08-07T22:25:26.509Z,100.00
2022-08-07T22:28:32.436Z,100.00
2022-08-07T22:34:58.025Z,100.00
2022-08-07T22:38:04.122Z,100.00
2022-08-07T22:40:46.071Z,100.00
2022-08-07T22:47:16.743Z,100.00
2022-08-07T22:54:07.946Z,100.00
2022-08-07T23:00:38.349Z,100.00
2022-08-07T23:03:58.340Z,100.00
2022-08-07T23:07:41.619Z,100.00
2022-08-07T23:14:15.026Z,100.00
2022-08-07T23:17:34.463Z,100.00
2022-08-07T23:21:02.318Z,100.00
2022-08-07T23:27:33.512Z,100.00
2022-08-07T23:30:35.882Z,100.00
2022-08-07T23:34:33.773Z,100.00
2022-08-07T23:40:08.416Z,100.00
2022-08-07T23:43:39.244Z,100.00
2022-08-07T23:50:54.567Z,100.00
2022-08-07T23:53:51.935Z,100.00
2022-08-07T23:56:53.802Z,100.00
